Main page
METAR-TAF:

METAR-TAF

Airports :

Muscatine Municipal Airport

Muscatine, Iowa, United States

latitude: 41-22N, longitude: 091-09W, elevation: 548 ft

Current weather observation

The report was made 27 minutes ago, at 04:15 UTC
Calm wind
Temperature 72°F
Humidity 100%
Pressure 29.92 in. Hg
Visibility: 10 miles

METAR: KMUT 240415Z AUTO 00000KT 10SM 22/22 A2992 RMK AO2

Time: 23:42 (04:42 UTC)


TAF: missing

Weather observations and forecasts of more than 4000 airports (METAR and TAF reports).

The available stations are represented by yellow and red dots on the map.

Hover mouse over dot to see the name of the station.

Then click to see weather observations and forecasts.

To change the map : click on the green buttons with a black cross to zoom in, on the green button with a dash to zoom out, or on the green arrows for adjacent maps.


METAR-TAF: